createdAt,value
2022-12-14T00:01:05.106Z,955.35
2022-12-14T00:06:34.397Z,954.64
2022-12-14T00:12:06.863Z,954.42
2022-12-14T00:17:38.909Z,954.74
2022-12-14T00:23:09.857Z,955.82
2022-12-14T00:28:41.567Z,955.63
2022-12-14T00:34:13.453Z,955.81
2022-12-14T00:39:44.816Z,955.54
2022-12-14T00:45:22.867Z,955.8
2022-12-14T00:50:55.290Z,954.9
2022-12-14T00:56:26.668Z,955.33
2022-12-14T01:01:58.472Z,955.16
2022-12-14T01:07:30.005Z,954.26
2022-12-14T01:13:01.959Z,955.13
2022-12-14T01:18:33.557Z,954.36
2022-12-14T01:24:05.104Z,955.59
2022-12-14T01:29:36.880Z,955.29
2022-12-14T01:35:08.542Z,955.45
2022-12-14T01:40:40.565Z,955.45
2022-12-14T01:46:16.761Z,955.51
2022-12-14T01:51:48.316Z,955.4
2022-12-14T01:57:20.095Z,955.56
2022-12-14T02:02:52.054Z,955.5
2022-12-14T02:08:24.296Z,955.09
2022-12-14T02:13:54.904Z,955.13
2022-12-14T02:19:26.708Z,954.65
2022-12-14T02:24:58.323Z,955.0
2022-12-14T02:30:29.905Z,954.57
2022-12-14T02:36:01.606Z,954.77
2022-12-14T02:41:33.369Z,955.32
2022-12-14T02:47:09.615Z,955.36
2022-12-14T02:52:41.455Z,954.7
2022-12-14T02:58:12.968Z,954.87
2022-12-14T03:03:44.791Z,954.77
2022-12-14T03:09:16.449Z,953.73
2022-12-14T03:14:48.101Z,954.2
2022-12-14T03:20:20.342Z,954.17
2022-12-14T03:25:51.533Z,953.92
2022-12-14T03:31:23.732Z,954.07
2022-12-14T03:36:55.526Z,954.08
2022-12-14T03:42:26.914Z,954.53
2022-12-14T03:48:03.160Z,954.19
2022-12-14T03:53:35.246Z,954.53
2022-12-14T03:59:06.527Z,954.31
2022-12-14T04:04:38.186Z,953.81
2022-12-14T04:10:10.133Z,953.83
2022-12-14T04:15:42.036Z,953.13
2022-12-14T04:21:13.310Z,953.48
2022-12-14T04:26:45.234Z,953.42
2022-12-14T04:32:16.987Z,954.09
2022-12-14T04:37:49.686Z,953.89
2022-12-14T04:43:20.461Z,954.12
2022-12-14T04:48:56.732Z,954.7
2022-12-14T04:54:28.119Z,954.44
2022-12-14T04:59:59.693Z,953.98
2022-12-14T05:05:31.540Z,953.44
2022-12-14T05:11:54.193Z,953.95
2022-12-14T05:16:34.988Z,954.42
2022-12-14T05:22:06.829Z,954.13
2022-12-14T05:27:38.529Z,953.75
2022-12-14T05:33:10.217Z,953.65
2022-12-14T05:38:41.813Z,953.27
2022-12-14T05:44:13.804Z,954.38
2022-12-14T05:49:50.196Z,953.65
2022-12-14T05:55:21.615Z,953.74
2022-12-14T06:00:53.499Z,953.55
2022-12-14T06:06:25.000Z,953.77
2022-12-14T06:11:56.683Z,953.59
2022-12-14T06:17:28.347Z,953.39
2022-12-14T06:23:00.224Z,952.7
2022-12-14T06:28:31.695Z,953.1
2022-12-14T06:34:03.686Z,953.03
2022-12-14T06:39:35.207Z,952.47
2022-12-14T06:45:07.030Z,952.73
2022-12-14T06:50:45.748Z,951.92
2022-12-14T06:56:16.967Z,952.09
2022-12-14T07:01:51.590Z,950.86
2022-12-14T07:07:20.296Z,951.21
2022-12-14T07:12:51.865Z,951.09
2022-12-14T07:18:23.570Z,950.44
2022-12-14T07:23:55.569Z,951.06
2022-12-14T07:29:35.199Z,951.19
2022-12-14T07:34:59.029Z,951.06
2022-12-14T07:40:30.753Z,951.65
2022-12-14T07:46:02.916Z,951.95
2022-12-14T07:51:40.382Z,951.77
2022-12-14T07:57:12.644Z,951.89
2022-12-14T08:02:44.280Z,952.08
2022-12-14T08:08:16.073Z,951.18
2022-12-14T08:13:47.664Z,951.85
2022-12-14T08:19:19.054Z,952.08
2022-12-14T08:24:51.055Z,952.07
2022-12-14T08:30:22.858Z,952.47
2022-12-14T08:35:54.352Z,952.89
2022-12-14T08:41:26.128Z,952.71
2022-12-14T08:46:57.903Z,952.19
2022-12-14T08:52:34.107Z,953.19
2022-12-14T08:58:05.881Z,953.73
2022-12-14T09:03:37.340Z,953.12
2022-12-14T09:09:17.338Z,952.8
2022-12-14T09:14:41.029Z,952.65
2022-12-14T09:20:12.543Z,952.75
2022-12-14T09:25:44.927Z,953.17
2022-12-14T09:31:16.320Z,952.2
2022-12-14T09:36:47.660Z,952.48
2022-12-14T09:42:19.323Z,952.83
2022-12-14T09:47:51.910Z,952.89
2022-12-14T09:53:28.522Z,954.01
2022-12-14T09:58:58.969Z,953.85
2022-12-14T10:04:30.660Z,954.59
2022-12-14T10:10:02.236Z,954.82
2022-12-14T10:15:33.948Z,954.5
2022-12-14T10:21:05.588Z,954.25
2022-12-14T10:26:37.339Z,954.19
2022-12-14T10:32:09.338Z,954.06
2022-12-14T10:37:40.880Z,954.01
2022-12-14T10:43:12.520Z,954.13
2022-12-14T10:48:44.457Z,953.24
2022-12-14T10:54:20.690Z,954.57
2022-12-14T11:00:10.453Z,954.95
2022-12-14T11:05:24.052Z,955.25
2022-12-14T11:10:55.761Z,956.2
2022-12-14T11:16:37.420Z,955.65
2022-12-14T11:21:59.161Z,955.71
2022-12-14T11:27:31.238Z,955.71
2022-12-14T11:33:02.630Z,955.35
2022-12-14T11:38:34.804Z,956.08
2022-12-14T11:44:06.119Z,955.33
2022-12-14T11:49:38.312Z,955.77
2022-12-14T11:55:21.630Z,955.66
2022-12-14T12:00:48.380Z,955.43
2022-12-14T12:06:19.600Z,956.32
2022-12-14T12:11:50.979Z,956.16
2022-12-14T12:17:22.694Z,956.63
2022-12-14T12:22:54.405Z,956.1
2022-12-14T12:28:26.822Z,955.72
2022-12-14T12:33:58.240Z,955.82
2022-12-14T12:39:29.537Z,954.59
2022-12-14T12:45:01.743Z,954.21
2022-12-14T12:50:33.544Z,954.47
2022-12-14T12:56:09.302Z,954.46
2022-12-14T13:01:41.485Z,954.42
2022-12-14T13:07:12.803Z,955.4
2022-12-14T13:12:48.715Z,955.09
2022-12-14T13:19:18.825Z,954.3
2022-12-14T13:23:47.916Z,955.45
2022-12-14T13:29:19.775Z,954.42
2022-12-14T13:34:51.252Z,953.92
2022-12-14T13:40:23.270Z,954.73
2022-12-14T13:45:55.021Z,954.55
2022-12-14T13:51:26.655Z,954.44
2022-12-14T13:57:02.997Z,954.07
2022-12-14T14:02:34.718Z,954.77
2022-12-14T14:08:06.546Z,955.66
2022-12-14T14:13:37.741Z,954.96
2022-12-14T14:19:09.860Z,955.72
2022-12-14T14:24:41.316Z,955.73
2022-12-14T14:30:12.899Z,956.91
2022-12-14T14:35:50.676Z,956.89
2022-12-14T14:41:19.767Z,956.19
2022-12-14T14:46:48.267Z,956.54
2022-12-14T14:52:19.677Z,957.5
2022-12-14T14:57:56.112Z,956.0
2022-12-14T15:03:27.961Z,956.94
2022-12-14T15:08:59.409Z,956.32
2022-12-14T15:14:31.199Z,956.91
2022-12-14T15:20:03.341Z,955.98
2022-12-14T15:25:35.102Z,956.23
2022-12-14T15:31:06.804Z,956.29
2022-12-14T15:36:37.815Z,956.1
2022-12-14T15:42:09.701Z,956.39
2022-12-14T15:47:41.318Z,957.36
2022-12-14T15:53:13.182Z,956.82
2022-12-14T15:58:49.741Z,957.2
2022-12-14T16:04:21.081Z,957.49
2022-12-14T16:09:53.133Z,958.06
2022-12-14T16:15:24.727Z,957.11
2022-12-14T16:20:56.144Z,957.44
2022-12-14T16:26:27.847Z,956.68
2022-12-14T16:31:59.955Z,957.18
2022-12-14T16:37:35.124Z,957.46
2022-12-14T16:43:03.577Z,957.99
2022-12-14T16:48:34.874Z,957.86
2022-12-14T16:54:06.650Z,957.9
2022-12-14T16:59:42.897Z,957.79
2022-12-14T17:05:14.753Z,957.28
2022-12-14T17:10:46.754Z,957.85
2022-12-14T17:16:18.100Z,957.49
2022-12-14T17:21:49.877Z,957.12
2022-12-14T17:27:21.286Z,958.15
2022-12-14T17:32:53.660Z,958.02
2022-12-14T17:38:24.636Z,957.82
2022-12-14T17:43:58.156Z,958.01
2022-12-14T17:49:28.045Z,958.2
2022-12-14T17:55:00.013Z,958.31
2022-12-14T18:00:36.092Z,958.52
2022-12-14T18:06:07.705Z,958.72
2022-12-14T18:12:24.054Z,958.72
2022-12-14T18:17:12.623Z,958.82
2022-12-14T18:22:49.945Z,957.97
2022-12-14T18:28:14.858Z,957.94
2022-12-14T18:33:46.461Z,958.72
2022-12-14T18:39:18.144Z,958.17
2022-12-14T18:44:49.742Z,959.07
2022-12-14T18:50:22.471Z,959.41
2022-12-14T18:55:53.638Z,959.15
2022-12-14T19:01:29.965Z,959.36
2022-12-14T19:07:01.164Z,960.33
2022-12-14T19:12:32.980Z,959.29
2022-12-14T19:18:04.723Z,959.63
2022-12-14T19:23:36.938Z,958.96
2022-12-14T19:29:08.075Z,958.87
2022-12-14T19:34:39.607Z,958.78
2022-12-14T19:40:14.728Z,958.25
2022-12-14T19:45:43.351Z,959.35
2022-12-14T19:51:14.974Z,958.61
2022-12-14T19:56:50.009Z,958.92
2022-12-14T20:02:23.034Z,958.09
2022-12-14T20:07:54.461Z,958.83
2022-12-14T20:13:26.323Z,959.07
2022-12-14T20:18:57.886Z,958.83
2022-12-14T20:24:29.729Z,959.37
2022-12-14T20:30:01.732Z,959.96
2022-12-14T20:35:33.294Z,959.86
2022-12-14T20:41:04.920Z,959.31
2022-12-14T20:46:37.152Z,960.36
2022-12-14T20:52:08.613Z,960.29
2022-12-14T20:57:40.513Z,960.04
2022-12-14T21:03:16.800Z,960.33
2022-12-14T21:08:50.276Z,959.95
2022-12-14T21:14:21.496Z,960.49
2022-12-14T21:19:51.317Z,960.57
2022-12-14T21:25:22.970Z,960.47
2022-12-14T21:30:54.980Z,960.53
2022-12-14T21:36:26.851Z,960.63
2022-12-14T21:41:58.488Z,960.65
2022-12-14T21:47:30.466Z,960.48
2022-12-14T21:53:03.357Z,960.92
2022-12-14T21:58:33.561Z,960.87
2022-12-14T22:04:09.630Z,960.94
2022-12-14T22:09:41.546Z,960.75
2022-12-14T22:15:13.060Z,960.78
2022-12-14T22:20:44.718Z,960.76
2022-12-14T22:26:16.323Z,960.93
2022-12-14T22:31:48.337Z,960.59
2022-12-14T22:37:19.772Z,960.68
2022-12-14T22:42:51.305Z,960.55
2022-12-14T22:48:23.272Z,960.3
2022-12-14T22:53:54.928Z,960.71
2022-12-14T22:59:26.579Z,960.36
2022-12-14T23:05:04.664Z,960.64
2022-12-14T23:10:36.432Z,960.81
2022-12-14T23:16:08.012Z,960.98
2022-12-14T23:21:40.108Z,960.98
2022-12-14T23:27:11.780Z,961.25
2022-12-14T23:32:43.443Z,961.24
2022-12-14T23:38:15.540Z,961.14
2022-12-14T23:43:46.937Z,960.72
2022-12-14T23:49:18.707Z,960.62
2022-12-14T23:54:50.446Z,960.79
